sensor_id;sensor_type;location;lat;lon;timestamp;temperature;humidity
29345;DHT22;16339;48.748;2.222;2022-10-31T00:01:37;17.20;71.80
29345;DHT22;16339;48.748;2.222;2022-10-31T00:04:09;17.20;71.60
29345;DHT22;16339;48.748;2.222;2022-10-31T00:06:38;17.20;71.60
29345;DHT22;16339;48.748;2.222;2022-10-31T00:09:06;17.20;71.70
29345;DHT22;16339;48.748;2.222;2022-10-31T00:11:35;17.20;71.60
29345;DHT22;16339;48.748;2.222;2022-10-31T00:14:04;17.10;71.20
29345;DHT22;16339;48.748;2.222;2022-10-31T00:16:33;17.10;71.20
29345;DHT22;16339;48.748;2.222;2022-10-31T00:19:04;17.10;71.10
29345;DHT22;16339;48.748;2.222;2022-10-31T00:21:36;17.00;71.10
29345;DHT22;16339;48.748;2.222;2022-10-31T00:24:05;17.00;71.00
29345;DHT22;16339;48.748;2.222;2022-10-31T00:26:34;17.00;71.20
29345;DHT22;16339;48.748;2.222;2022-10-31T00:29:03;17.00;71.40
29345;DHT22;16339;48.748;2.222;2022-10-31T00:31:32;17.00;71.40
29345;DHT22;16339;48.748;2.222;2022-10-31T00:34:00;16.90;71.50
29345;DHT22;16339;48.748;2.222;2022-10-31T00:36:30;16.90;71.60
29345;DHT22;16339;48.748;2.222;2022-10-31T00:39:01;16.90;71.60
29345;DHT22;16339;48.748;2.222;2022-10-31T00:41:30;16.90;71.10
29345;DHT22;16339;48.748;2.222;2022-10-31T00:43:59;16.90;70.80
29345;DHT22;16339;48.748;2.222;2022-10-31T00:46:27;16.90;70.60
29345;DHT22;16339;48.748;2.222;2022-10-31T00:48:56;17.00;70.60
29345;DHT22;16339;48.748;2.222;2022-10-31T00:51:25;16.90;70.50
29345;DHT22;16339;48.748;2.222;2022-10-31T00:53:54;17.00;70.50
29345;DHT22;16339;48.748;2.222;2022-10-31T00:56:25;17.00;70.70
29345;DHT22;16339;48.748;2.222;2022-10-31T00:58:54;17.00;70.80
29345;DHT22;16339;48.748;2.222;2022-10-31T01:01:23;17.00;70.80
29345;DHT22;16339;48.748;2.222;2022-10-31T01:03:51;17.00;70.70
29345;DHT22;16339;48.748;2.222;2022-10-31T01:06:20;17.00;70.60
29345;DHT22;16339;48.748;2.222;2022-10-31T01:08:49;17.00;70.70
29345;DHT22;16339;48.748;2.222;2022-10-31T01:11:19;16.90;70.80
29345;DHT22;16339;48.748;2.222;2022-10-31T01:13:51;17.00;71.80
29345;DHT22;16339;48.748;2.222;2022-10-31T01:16:23;16.90;71.00
29345;DHT22;16339;48.748;2.222;2022-10-31T01:18:51;17.00;71.00
29345;DHT22;16339;48.748;2.222;2022-10-31T01:21:22;17.00;71.20
29345;DHT22;16339;48.748;2.222;2022-10-31T01:23:53;17.00;71.10
29345;DHT22;16339;48.748;2.222;2022-10-31T01:26:24;17.00;71.10
29345;DHT22;16339;48.748;2.222;2022-10-31T01:28:57;17.10;71.10
29345;DHT22;16339;48.748;2.222;2022-10-31T01:31:28;17.00;71.10
29345;DHT22;16339;48.748;2.222;2022-10-31T01:33:57;17.10;71.10
29345;DHT22;16339;48.748;2.222;2022-10-31T01:36:27;17.20;71.30
29345;DHT22;16339;48.748;2.222;2022-10-31T01:38:59;17.10;71.10
29345;DHT22;16339;48.748;2.222;2022-10-31T01:41:31;17.10;71.30
29345;DHT22;16339;48.748;2.222;2022-10-31T01:47:11;17.10;71.40
29345;DHT22;16339;48.748;2.222;2022-10-31T01:49:43;17.10;71.30
29345;DHT22;16339;48.748;2.222;2022-10-31T01:52:18;17.10;71.40
29345;DHT22;16339;48.748;2.222;2022-10-31T01:54:51;17.10;71.60
29345;DHT22;16339;48.748;2.222;2022-10-31T01:57:22;17.10;72.50
29345;DHT22;16339;48.748;2.222;2022-10-31T01:59:56;17.20;72.60
29345;DHT22;16339;48.748;2.222;2022-10-31T02:02:26;17.10;71.60
29345;DHT22;16339;48.748;2.222;2022-10-31T02:04:56;17.20;71.60
29345;DHT22;16339;48.748;2.222;2022-10-31T02:07:28;17.20;71.50
29345;DHT22;16339;48.748;2.222;2022-10-31T02:09:58;17.20;71.50
29345;DHT22;16339;48.748;2.222;2022-10-31T02:12:29;17.30;71.60
29345;DHT22;16339;48.748;2.222;2022-10-31T02:15:01;17.20;71.40
29345;DHT22;16339;48.748;2.222;2022-10-31T02:17:31;17.20;71.30
29345;DHT22;16339;48.748;2.222;2022-10-31T02:20:09;17.10;71.50
29345;DHT22;16339;48.748;2.222;2022-10-31T02:22:53;17.00;71.70
29345;DHT22;16339;48.748;2.222;2022-10-31T02:25:45;17.00;72.10
29345;DHT22;16339;48.748;2.222;2022-10-31T02:28:29;17.00;72.30
29345;DHT22;16339;48.748;2.222;2022-10-31T02:31:16;16.90;72.50
29345;DHT22;16339;48.748;2.222;2022-10-31T02:33:51;17.00;72.80
29345;DHT22;16339;48.748;2.222;2022-10-31T02:36:25;17.00;72.70
29345;DHT22;16339;48.748;2.222;2022-10-31T02:39:05;17.00;72.80
29345;DHT22;16339;48.748;2.222;2022-10-31T02:41:39;17.00;72.50
29345;DHT22;16339;48.748;2.222;2022-10-31T02:44:19;17.00;72.30
29345;DHT22;16339;48.748;2.222;2022-10-31T02:46:54;17.00;72.40
29345;DHT22;16339;48.748;2.222;2022-10-31T02:49:30;17.00;72.60
29345;DHT22;16339;48.748;2.222;2022-10-31T02:52:01;17.00;72.70
29345;DHT22;16339;48.748;2.222;2022-10-31T02:54:31;17.00;72.70
29345;DHT22;16339;48.748;2.222;2022-10-31T02:57:02;17.10;72.80
29345;DHT22;16339;48.748;2.222;2022-10-31T02:59:33;17.10;72.60
29345;DHT22;16339;48.748;2.222;2022-10-31T03:05:14;17.00;72.60
29345;DHT22;16339;48.748;2.222;2022-10-31T03:07:54;17.00;72.90
29345;DHT22;16339;48.748;2.222;2022-10-31T03:10:31;17.00;73.00
29345;DHT22;16339;48.748;2.222;2022-10-31T03:13:07;17.00;73.00
29345;DHT22;16339;48.748;2.222;2022-10-31T03:15:39;17.00;73.00
29345;DHT22;16339;48.748;2.222;2022-10-31T03:18:15;17.10;73.00
29345;DHT22;16339;48.748;2.222;2022-10-31T03:20:47;17.10;72.80
29345;DHT22;16339;48.748;2.222;2022-10-31T03:23:19;17.20;72.70
29345;DHT22;16339;48.748;2.222;2022-10-31T03:25:51;17.20;72.60
29345;DHT22;16339;48.748;2.222;2022-10-31T03:28:25;17.10;72.50
29345;DHT22;16339;48.748;2.222;2022-10-31T03:30:56;17.10;72.70
29345;DHT22;16339;48.748;2.222;2022-10-31T03:33:31;17.10;72.90
29345;DHT22;16339;48.748;2.222;2022-10-31T03:36:03;17.00;72.90
29345;DHT22;16339;48.748;2.222;2022-10-31T03:38:34;17.10;73.00
29345;DHT22;16339;48.748;2.222;2022-10-31T03:41:06;17.10;73.10
29345;DHT22;16339;48.748;2.222;2022-10-31T03:43:40;17.10;73.20
29345;DHT22;16339;48.748;2.222;2022-10-31T03:46:10;17.10;73.30
29345;DHT22;16339;48.748;2.222;2022-10-31T03:48:42;17.10;73.40
29345;DHT22;16339;48.748;2.222;2022-10-31T03:51:14;17.10;73.50
29345;DHT22;16339;48.748;2.222;2022-10-31T03:53:47;17.10;73.60
29345;DHT22;16339;48.748;2.222;2022-10-31T03:56:21;17.20;73.60
29345;DHT22;16339;48.748;2.222;2022-10-31T03:58:57;17.20;73.60
29345;DHT22;16339;48.748;2.222;2022-10-31T04:01:30;17.20;73.60
29345;DHT22;16339;48.748;2.222;2022-10-31T04:04:02;17.20;73.60
29345;DHT22;16339;48.748;2.222;2022-10-31T04:06:33;17.20;73.70
29345;DHT22;16339;48.748;2.222;2022-10-31T04:09:05;17.30;73.70
29345;DHT22;16339;48.748;2.222;2022-10-31T04:11:40;17.20;73.50
29345;DHT22;16339;48.748;2.222;2022-10-31T04:14:11;17.20;73.30
29345;DHT22;16339;48.748;2.222;2022-10-31T04:16:41;17.20;73.20
29345;DHT22;16339;48.748;2.222;2022-10-31T04:19:14;17.20;73.20
29345;DHT22;16339;48.748;2.222;2022-10-31T04:21:43;17.20;73.20
29345;DHT22;16339;48.748;2.222;2022-10-31T04:24:12;17.20;73.10
29345;DHT22;16339;48.748;2.222;2022-10-31T04:26:41;17.20;73.20
29345;DHT22;16339;48.748;2.222;2022-10-31T04:29:09;17.20;73.20
29345;DHT22;16339;48.748;2.222;2022-10-31T04:31:38;17.20;73.20
29345;DHT22;16339;48.748;2.222;2022-10-31T04:34:06;17.20;73.20
29345;DHT22;16339;48.748;2.222;2022-10-31T04:36:38;17.20;73.00
29345;DHT22;16339;48.748;2.222;2022-10-31T04:39:06;17.20;73.20
29345;DHT22;16339;48.748;2.222;2022-10-31T04:41:35;17.20;73.30
29345;DHT22;16339;48.748;2.222;2022-10-31T04:44:05;17.20;73.30
29345;DHT22;16339;48.748;2.222;2022-10-31T04:46:33;17.10;73.30
29345;DHT22;16339;48.748;2.222;2022-10-31T04:49:02;17.10;73.60
29345;DHT22;16339;48.748;2.222;2022-10-31T04:51:31;17.10;73.80
29345;DHT22;16339;48.748;2.222;2022-10-31T04:54:02;17.20;73.90
29345;DHT22;16339;48.748;2.222;2022-10-31T04:56:31;17.10;73.90
29345;DHT22;16339;48.748;2.222;2022-10-31T04:58:59;17.30;74.00
29345;DHT22;16339;48.748;2.222;2022-10-31T05:01:28;17.20;73.70
29345;DHT22;16339;48.748;2.222;2022-10-31T05:03:56;17.20;73.80
29345;DHT22;16339;48.748;2.222;2022-10-31T05:06:25;17.20;74.00
29345;DHT22;16339;48.748;2.222;2022-10-31T05:08:54;17.20;74.10
29345;DHT22;16339;48.748;2.222;2022-10-31T05:11:25;17.20;74.10
29345;DHT22;16339;48.748;2.222;2022-10-31T05:13:54;17.20;74.00
29345;DHT22;16339;48.748;2.222;2022-10-31T05:16:22;17.20;73.90
29345;DHT22;16339;48.748;2.222;2022-10-31T05:18:51;17.20;73.80
29345;DHT22;16339;48.748;2.222;2022-10-31T05:21:20;17.30;73.80
29345;DHT22;16339;48.748;2.222;2022-10-31T05:23:49;17.20;73.70
29345;DHT22;16339;48.748;2.222;2022-10-31T05:26:17;17.20;73.80
29345;DHT22;16339;48.748;2.222;2022-10-31T05:28:49;17.20;73.80
29345;DHT22;16339;48.748;2.222;2022-10-31T05:31:17;17.20;73.90
29345;DHT22;16339;48.748;2.222;2022-10-31T05:33:46;17.20;73.90
29345;DHT22;16339;48.748;2.222;2022-10-31T05:36:15;17.20;73.90
29345;DHT22;16339;48.748;2.222;2022-10-31T05:38:43;17.20;74.10
29345;DHT22;16339;48.748;2.222;2022-10-31T05:41:12;17.20;74.30
29345;DHT22;16339;48.748;2.222;2022-10-31T05:43:41;17.20;74.30
29345;DHT22;16339;48.748;2.222;2022-10-31T05:46:12;17.20;74.20
29345;DHT22;16339;48.748;2.222;2022-10-31T05:48:41;17.20;74.10
29345;DHT22;16339;48.748;2.222;2022-10-31T05:51:09;17.20;74.10
29345;DHT22;16339;48.748;2.222;2022-10-31T05:53:38;17.20;74.80
29345;DHT22;16339;48.748;2.222;2022-10-31T05:56:07;17.20;74.10
29345;DHT22;16339;48.748;2.222;2022-10-31T05:58:35;17.20;74.10
29345;DHT22;16339;48.748;2.222;2022-10-31T06:01:04;17.10;74.10
29345;DHT22;16339;48.748;2.222;2022-10-31T06:03:36;17.20;74.30
29345;DHT22;16339;48.748;2.222;2022-10-31T06:06:05;17.20;74.40
29345;DHT22;16339;48.748;2.222;2022-10-31T06:08:34;17.20;74.40
29345;DHT22;16339;48.748;2.222;2022-10-31T06:11:03;17.20;74.40
29345;DHT22;16339;48.748;2.222;2022-10-31T06:13:31;17.20;74.40
29345;DHT22;16339;48.748;2.222;2022-10-31T06:16:00;17.20;74.40
29345;DHT22;16339;48.748;2.222;2022-10-31T06:18:29;17.20;74.50
29345;DHT22;16339;48.748;2.222;2022-10-31T06:21:00;17.20;74.40
29345;DHT22;16339;48.748;2.222;2022-10-31T06:23:29;17.20;74.40
29345;DHT22;16339;48.748;2.222;2022-10-31T06:25:57;17.20;74.40
29345;DHT22;16339;48.748;2.222;2022-10-31T06:28:26;17.20;74.40
29345;DHT22;16339;48.748;2.222;2022-10-31T06:30:55;17.20;74.40
29345;DHT22;16339;48.748;2.222;2022-10-31T06:33:23;17.20;74.50
29345;DHT22;16339;48.748;2.222;2022-10-31T06:35:52;17.20;74.50
29345;DHT22;16339;48.748;2.222;2022-10-31T06:38:25;17.20;74.40
29345;DHT22;16339;48.748;2.222;2022-10-31T06:40:54;17.10;74.50
29345;DHT22;16339;48.748;2.222;2022-10-31T06:43:23;17.10;74.80
29345;DHT22;16339;48.748;2.222;2022-10-31T06:45:52;17.10;75.00
29345;DHT22;16339;48.748;2.222;2022-10-31T06:48:20;17.10;75.10
29345;DHT22;16339;48.748;2.222;2022-10-31T06:50:49;17.10;75.20
29345;DHT22;16339;48.748;2.222;2022-10-31T06:53:18;17.10;75.20
29345;DHT22;16339;48.748;2.222;2022-10-31T06:55:49;17.10;75.10
29345;DHT22;16339;48.748;2.222;2022-10-31T06:58:18;17.10;75.20
29345;DHT22;16339;48.748;2.222;2022-10-31T07:00:46;17.10;75.10
29345;DHT22;16339;48.748;2.222;2022-10-31T07:03:16;17.10;75.00
29345;DHT22;16339;48.748;2.222;2022-10-31T07:05:45;17.10;75.00
29345;DHT22;16339;48.748;2.222;2022-10-31T07:08:15;17.10;75.00
29345;DHT22;16339;48.748;2.222;2022-10-31T07:10:53;17.10;75.10
29345;DHT22;16339;48.748;2.222;2022-10-31T07:13:23;17.10;75.30
29345;DHT22;16339;48.748;2.222;2022-10-31T07:15:52;17.10;75.20
29345;DHT22;16339;48.748;2.222;2022-10-31T07:18:22;17.10;75.20
29345;DHT22;16339;48.748;2.222;2022-10-31T07:20:52;17.20;75.20
29345;DHT22;16339;48.748;2.222;2022-10-31T07:23:21;17.10;75.10
29345;DHT22;16339;48.748;2.222;2022-10-31T07:25:57;17.20;76.10
29345;DHT22;16339;48.748;2.222;2022-10-31T07:28:26;17.10;75.10
29345;DHT22;16339;48.748;2.222;2022-10-31T07:30:56;17.20;75.20
29345;DHT22;16339;48.748;2.222;2022-10-31T07:33:25;17.20;75.30
29345;DHT22;16339;48.748;2.222;2022-10-31T07:35:54;17.20;75.40
29345;DHT22;16339;48.748;2.222;2022-10-31T07:38:23;17.20;75.50
29345;DHT22;16339;48.748;2.222;2022-10-31T07:40:52;17.30;75.60
29345;DHT22;16339;48.748;2.222;2022-10-31T07:43:24;17.30;75.50
29345;DHT22;16339;48.748;2.222;2022-10-31T07:45:53;17.30;75.50
29345;DHT22;16339;48.748;2.222;2022-10-31T07:48:23;17.30;75.50
29345;DHT22;16339;48.748;2.222;2022-10-31T07:50:51;17.30;75.30
29345;DHT22;16339;48.748;2.222;2022-10-31T07:53:20;17.30;75.30
29345;DHT22;16339;48.748;2.222;2022-10-31T07:55:49;17.30;75.40
29345;DHT22;16339;48.748;2.222;2022-10-31T07:58:18;17.40;75.50
29345;DHT22;16339;48.748;2.222;2022-10-31T08:00:49;17.40;75.60
29345;DHT22;16339;48.748;2.222;2022-10-31T08:03:19;17.40;75.70
29345;DHT22;16339;48.748;2.222;2022-10-31T08:05:48;17.50;75.80
29345;DHT22;16339;48.748;2.222;2022-10-31T08:08:16;17.50;75.80
29345;DHT22;16339;48.748;2.222;2022-10-31T08:10:45;17.50;76.10
29345;DHT22;16339;48.748;2.222;2022-10-31T08:13:14;17.50;76.20
29345;DHT22;16339;48.748;2.222;2022-10-31T08:15:42;17.60;76.30
29345;DHT22;16339;48.748;2.222;2022-10-31T08:18:18;17.60;76.60
29345;DHT22;16339;48.748;2.222;2022-10-31T08:20:49;17.60;76.60
29345;DHT22;16339;48.748;2.222;2022-10-31T08:23:18;17.70;76.80
29345;DHT22;16339;48.748;2.222;2022-10-31T08:25:47;17.70;76.80
29345;DHT22;16339;48.748;2.222;2022-10-31T08:28:15;17.70;76.90
29345;DHT22;16339;48.748;2.222;2022-10-31T08:30:44;17.80;77.00
29345;DHT22;16339;48.748;2.222;2022-10-31T08:33:14;17.80;77.50
29345;DHT22;16339;48.748;2.222;2022-10-31T08:35:46;17.80;77.80
29345;DHT22;16339;48.748;2.222;2022-10-31T08:38:15;17.80;78.00
29345;DHT22;16339;48.748;2.222;2022-10-31T08:40:48;17.80;78.10
29345;DHT22;16339;48.748;2.222;2022-10-31T08:43:17;17.80;78.30
29345;DHT22;16339;48.748;2.222;2022-10-31T08:50:59;18.00;78.30
29345;DHT22;16339;48.748;2.222;2022-10-31T08:53:28;18.10;78.30
29345;DHT22;16339;48.748;2.222;2022-10-31T08:55:57;18.10;78.10
29345;DHT22;16339;48.748;2.222;2022-10-31T08:58:26;18.20;78.10
29345;DHT22;16339;48.748;2.222;2022-10-31T09:00:55;18.20;78.20
29345;DHT22;16339;48.748;2.222;2022-10-31T09:03:26;18.30;78.10
29345;DHT22;16339;48.748;2.222;2022-10-31T09:05:59;18.30;78.00
29345;DHT22;16339;48.748;2.222;2022-10-31T09:08:30;18.40;77.80
29345;DHT22;16339;48.748;2.222;2022-10-31T09:10:59;18.30;77.30
29345;DHT22;16339;48.748;2.222;2022-10-31T09:13:28;18.40;77.30
29345;DHT22;16339;48.748;2.222;2022-10-31T09:15:57;18.30;77.30
29345;DHT22;16339;48.748;2.222;2022-10-31T09:18:26;18.30;77.40
29345;DHT22;16339;48.748;2.222;2022-10-31T09:21:00;18.40;77.40
29345;DHT22;16339;48.748;2.222;2022-10-31T09:23:29;18.40;77.30
29345;DHT22;16339;48.748;2.222;2022-10-31T09:25:59;18.40;77.30
29345;DHT22;16339;48.748;2.222;2022-10-31T09:28:29;18.40;77.30
29345;DHT22;16339;48.748;2.222;2022-10-31T09:30:57;18.50;77.20
29345;DHT22;16339;48.748;2.222;2022-10-31T09:33:26;18.60;77.30
29345;DHT22;16339;48.748;2.222;2022-10-31T09:35:55;18.50;77.00
29345;DHT22;16339;48.748;2.222;2022-10-31T09:38:26;18.60;77.00
29345;DHT22;16339;48.748;2.222;2022-10-31T09:41:00;18.60;77.10
29345;DHT22;16339;48.748;2.222;2022-10-31T09:43:36;18.60;76.90
29345;DHT22;16339;48.748;2.222;2022-10-31T09:46:13;18.60;76.70
29345;DHT22;16339;48.748;2.222;2022-10-31T09:48:53;18.70;76.90
29345;DHT22;16339;48.748;2.222;2022-10-31T09:51:29;18.70;76.90
29345;DHT22;16339;48.748;2.222;2022-10-31T09:54:05;18.70;76.80
29345;DHT22;16339;48.748;2.222;2022-10-31T09:56:38;18.70;76.70
29345;DHT22;16339;48.748;2.222;2022-10-31T09:59:15;18.80;76.70
29345;DHT22;16339;48.748;2.222;2022-10-31T10:01:47;18.80;76.70
29345;DHT22;16339;48.748;2.222;2022-10-31T10:04:34;18.90;76.40
29345;DHT22;16339;48.748;2.222;2022-10-31T10:07:14;18.80;76.50
29345;DHT22;16339;48.748;2.222;2022-10-31T10:09:47;18.90;76.50
29345;DHT22;16339;48.748;2.222;2022-10-31T10:12:22;19.00;76.70
29345;DHT22;16339;48.748;2.222;2022-10-31T10:15:06;19.00;76.10
29345;DHT22;16339;48.748;2.222;2022-10-31T10:17:44;19.10;76.10
29345;DHT22;16339;48.748;2.222;2022-10-31T10:20:24;19.20;75.70
29345;DHT22;16339;48.748;2.222;2022-10-31T10:23:11;19.20;75.50
29345;DHT22;16339;48.748;2.222;2022-10-31T10:25:46;19.30;75.50
29345;DHT22;16339;48.748;2.222;2022-10-31T10:28:22;19.40;75.40
29345;DHT22;16339;48.748;2.222;2022-10-31T10:30:56;19.40;75.20
29345;DHT22;16339;48.748;2.222;2022-10-31T10:33:31;19.50;75.10
29345;DHT22;16339;48.748;2.222;2022-10-31T10:36:05;19.60;75.10
29345;DHT22;16339;48.748;2.222;2022-10-31T10:38:39;19.70;74.80
29345;DHT22;16339;48.748;2.222;2022-10-31T10:41:16;19.70;74.20
29345;DHT22;16339;48.748;2.222;2022-10-31T10:43:45;19.80;73.90
29345;DHT22;16339;48.748;2.222;2022-10-31T10:46:19;19.90;73.80
29345;DHT22;16339;48.748;2.222;2022-10-31T10:49:09;19.90;73.50
29345;DHT22;16339;48.748;2.222;2022-10-31T10:51:51;19.90;73.30
29345;DHT22;16339;48.748;2.222;2022-10-31T10:54:41;19.90;73.20
29345;DHT22;16339;48.748;2.222;2022-10-31T10:57:22;19.70;73.30
29345;DHT22;16339;48.748;2.222;2022-10-31T10:59:55;19.70;73.30
29345;DHT22;16339;48.748;2.222;2022-10-31T11:02:26;19.80;73.30
29345;DHT22;16339;48.748;2.222;2022-10-31T11:04:57;19.80;73.40
29345;DHT22;16339;48.748;2.222;2022-10-31T11:07:40;19.70;73.50
29345;DHT22;16339;48.748;2.222;2022-10-31T11:10:14;19.70;73.80
29345;DHT22;16339;48.748;2.222;2022-10-31T11:13:04;19.70;73.90
29345;DHT22;16339;48.748;2.222;2022-10-31T11:15:37;19.70;73.90
29345;DHT22;16339;48.748;2.222;2022-10-31T11:18:18;19.70;73.80
29345;DHT22;16339;48.748;2.222;2022-10-31T11:20:51;19.70;73.70
29345;DHT22;16339;48.748;2.222;2022-10-31T11:23:22;19.80;73.40
29345;DHT22;16339;48.748;2.222;2022-10-31T11:25:54;19.80;73.00
29345;DHT22;16339;48.748;2.222;2022-10-31T11:28:27;19.80;73.00
29345;DHT22;16339;48.748;2.222;2022-10-31T11:30:59;19.80;72.60
29345;DHT22;16339;48.748;2.222;2022-10-31T11:33:31;19.80;72.50
29345;DHT22;16339;48.748;2.222;2022-10-31T11:36:03;19.90;72.60
29345;DHT22;16339;48.748;2.222;2022-10-31T11:38:35;19.90;72.50
29345;DHT22;16339;48.748;2.222;2022-10-31T11:41:12;19.90;72.50
29345;DHT22;16339;48.748;2.222;2022-10-31T11:43:50;20.00;72.30
29345;DHT22;16339;48.748;2.222;2022-10-31T11:46:22;20.00;72.00
29345;DHT22;16339;48.748;2.222;2022-10-31T11:48:54;20.10;71.80
29345;DHT22;16339;48.748;2.222;2022-10-31T11:51:25;20.10;71.50
29345;DHT22;16339;48.748;2.222;2022-10-31T11:53:56;20.10;71.60
29345;DHT22;16339;48.748;2.222;2022-10-31T11:56:36;20.20;71.40
29345;DHT22;16339;48.748;2.222;2022-10-31T11:59:17;20.30;71.10
29345;DHT22;16339;48.748;2.222;2022-10-31T12:01:48;20.30;71.10
29345;DHT22;16339;48.748;2.222;2022-10-31T12:04:17;20.40;71.10
29345;DHT22;16339;48.748;2.222;2022-10-31T12:06:46;20.40;70.90
29345;DHT22;16339;48.748;2.222;2022-10-31T12:09:21;20.40;70.60
29345;DHT22;16339;48.748;2.222;2022-10-31T12:14:57;20.50;70.50
29345;DHT22;16339;48.748;2.222;2022-10-31T12:17:34;20.60;70.30
29345;DHT22;16339;48.748;2.222;2022-10-31T12:20:13;20.60;69.70
29345;DHT22;16339;48.748;2.222;2022-10-31T12:22:55;20.70;69.70
29345;DHT22;16339;48.748;2.222;2022-10-31T12:25:34;20.70;69.60
29345;DHT22;16339;48.748;2.222;2022-10-31T12:28:25;20.80;69.60
29345;DHT22;16339;48.748;2.222;2022-10-31T12:31:09;20.80;69.60
29345;DHT22;16339;48.748;2.222;2022-10-31T12:33:50;20.90;69.50
29345;DHT22;16339;48.748;2.222;2022-10-31T12:36:28;21.00;68.80
29345;DHT22;16339;48.748;2.222;2022-10-31T12:39:17;21.00;69.40
29345;DHT22;16339;48.748;2.222;2022-10-31T12:41:52;21.10;69.40
29345;DHT22;16339;48.748;2.222;2022-10-31T12:45:00;21.10;68.70
29345;DHT22;16339;48.748;2.222;2022-10-31T12:47:52;21.20;68.90
29345;DHT22;16339;48.748;2.222;2022-10-31T12:50:31;21.30;68.70
29345;DHT22;16339;48.748;2.222;2022-10-31T12:53:14;21.30;68.60
29345;DHT22;16339;48.748;2.222;2022-10-31T12:55:54;21.20;68.60
29345;DHT22;16339;48.748;2.222;2022-10-31T12:58:26;21.20;68.70
29345;DHT22;16339;48.748;2.222;2022-10-31T13:01:06;21.20;68.80
29345;DHT22;16339;48.748;2.222;2022-10-31T13:03:44;21.20;69.00
29345;DHT22;16339;48.748;2.222;2022-10-31T13:06:18;21.20;69.20
29345;DHT22;16339;48.748;2.222;2022-10-31T13:08:50;21.30;69.40
29345;DHT22;16339;48.748;2.222;2022-10-31T13:11:23;21.40;69.10
29345;DHT22;16339;48.748;2.222;2022-10-31T13:14:00;21.40;68.90
29345;DHT22;16339;48.748;2.222;2022-10-31T13:16:36;21.50;68.60
29345;DHT22;16339;48.748;2.222;2022-10-31T13:19:13;21.60;68.30
29345;DHT22;16339;48.748;2.222;2022-10-31T13:21:55;21.60;68.20
29345;DHT22;16339;48.748;2.222;2022-10-31T13:24:33;21.60;68.20
29345;DHT22;16339;48.748;2.222;2022-10-31T13:27:09;21.50;68.10
29345;DHT22;16339;48.748;2.222;2022-10-31T13:29:44;21.30;68.60
29345;DHT22;16339;48.748;2.222;2022-10-31T13:32:14;21.40;68.70
29345;DHT22;16339;48.748;2.222;2022-10-31T13:34:51;21.40;68.70
29345;DHT22;16339;48.748;2.222;2022-10-31T13:37:27;21.40;69.20
29345;DHT22;16339;48.748;2.222;2022-10-31T13:40:13;21.50;69.40
29345;DHT22;16339;48.748;2.222;2022-10-31T13:42:53;21.50;69.10
29345;DHT22;16339;48.748;2.222;2022-10-31T13:45:24;21.50;69.00
29345;DHT22;16339;48.748;2.222;2022-10-31T13:47:57;21.60;68.90
29345;DHT22;16339;48.748;2.222;2022-10-31T13:50:31;21.50;68.90
29345;DHT22;16339;48.748;2.222;2022-10-31T13:53:12;21.60;69.40
29345;DHT22;16339;48.748;2.222;2022-10-31T13:55:42;21.60;69.30
29345;DHT22;16339;48.748;2.222;2022-10-31T13:58:25;21.70;69.40
29345;DHT22;16339;48.748;2.222;2022-10-31T14:01:05;21.70;69.30
29345;DHT22;16339;48.748;2.222;2022-10-31T14:03:40;21.70;69.10
29345;DHT22;16339;48.748;2.222;2022-10-31T14:06:13;21.60;69.10
29345;DHT22;16339;48.748;2.222;2022-10-31T14:08:53;21.70;69.40
29345;DHT22;16339;48.748;2.222;2022-10-31T14:11:25;21.70;69.50
29345;DHT22;16339;48.748;2.222;2022-10-31T14:13:56;21.80;69.40
29345;DHT22;16339;48.748;2.222;2022-10-31T14:16:26;21.90;68.90
29345;DHT22;16339;48.748;2.222;2022-10-31T14:19:00;22.10;68.80
29345;DHT22;16339;48.748;2.222;2022-10-31T14:21:38;22.10;68.30
29345;DHT22;16339;48.748;2.222;2022-10-31T14:24:14;22.10;68.30
29345;DHT22;16339;48.748;2.222;2022-10-31T14:26:53;22.10;68.20
29345;DHT22;16339;48.748;2.222;2022-10-31T14:29:27;22.00;68.10
29345;DHT22;16339;48.748;2.222;2022-10-31T14:32:06;22.00;68.10
29345;DHT22;16339;48.748;2.222;2022-10-31T14:34:40;21.90;68.30
29345;DHT22;16339;48.748;2.222;2022-10-31T14:37:30;21.90;68.30
29345;DHT22;16339;48.748;2.222;2022-10-31T14:43:19;21.80;68.60
29345;DHT22;16339;48.748;2.222;2022-10-31T14:45:58;21.70;68.60
29345;DHT22;16339;48.748;2.222;2022-10-31T14:48:48;21.70;68.70
29345;DHT22;16339;48.748;2.222;2022-10-31T14:51:22;21.60;68.90
29345;DHT22;16339;48.748;2.222;2022-10-31T14:53:55;21.70;68.80
29345;DHT22;16339;48.748;2.222;2022-10-31T14:56:26;21.60;68.80
29345;DHT22;16339;48.748;2.222;2022-10-31T14:58:56;21.70;68.90
29345;DHT22;16339;48.748;2.222;2022-10-31T15:01:27;21.70;69.10
29345;DHT22;16339;48.748;2.222;2022-10-31T15:04:00;21.60;68.80
29345;DHT22;16339;48.748;2.222;2022-10-31T15:06:38;21.60;68.90
29345;DHT22;16339;48.748;2.222;2022-10-31T15:09:24;21.50;68.80
29345;DHT22;16339;48.748;2.222;2022-10-31T15:11:53;21.50;69.00
29345;DHT22;16339;48.748;2.222;2022-10-31T15:14:24;21.50;68.80
29345;DHT22;16339;48.748;2.222;2022-10-31T15:16:53;21.50;69.00
29345;DHT22;16339;48.748;2.222;2022-10-31T15:19:23;21.40;69.10
29345;DHT22;16339;48.748;2.222;2022-10-31T15:21:54;21.40;69.10
29345;DHT22;16339;48.748;2.222;2022-10-31T15:24:30;21.40;69.20
29345;DHT22;16339;48.748;2.222;2022-10-31T15:27:01;21.30;69.40
29345;DHT22;16339;48.748;2.222;2022-10-31T15:29:30;21.30;69.50
29345;DHT22;16339;48.748;2.222;2022-10-31T15:32:00;21.20;69.70
29345;DHT22;16339;48.748;2.222;2022-10-31T15:34:35;21.20;69.80
29345;DHT22;16339;48.748;2.222;2022-10-31T15:37:10;21.10;69.90
29345;DHT22;16339;48.748;2.222;2022-10-31T15:39:43;21.10;70.10
29345;DHT22;16339;48.748;2.222;2022-10-31T15:42:20;21.10;70.20
29345;DHT22;16339;48.748;2.222;2022-10-31T15:44:52;21.00;70.30
29345;DHT22;16339;48.748;2.222;2022-10-31T15:47:23;21.00;70.50
29345;DHT22;16339;48.748;2.222;2022-10-31T15:49:54;21.00;70.70
29345;DHT22;16339;48.748;2.222;2022-10-31T15:52:28;21.00;70.90
29345;DHT22;16339;48.748;2.222;2022-10-31T15:55:03;20.90;71.00
29345;DHT22;16339;48.748;2.222;2022-10-31T15:57:33;20.90;71.20
29345;DHT22;16339;48.748;2.222;2022-10-31T16:00:02;20.90;71.20
29345;DHT22;16339;48.748;2.222;2022-10-31T16:02:31;20.80;71.30
29345;DHT22;16339;48.748;2.222;2022-10-31T16:05:00;20.80;71.30
29345;DHT22;16339;48.748;2.222;2022-10-31T16:07:30;20.80;71.40
29345;DHT22;16339;48.748;2.222;2022-10-31T16:10:03;20.80;71.40
29345;DHT22;16339;48.748;2.222;2022-10-31T16:12:35;20.70;71.50
29345;DHT22;16339;48.748;2.222;2022-10-31T16:15:05;20.70;71.60
29345;DHT22;16339;48.748;2.222;2022-10-31T16:17:44;20.70;71.80
29345;DHT22;16339;48.748;2.222;2022-10-31T16:20:19;20.70;71.90
29345;DHT22;16339;48.748;2.222;2022-10-31T16:22:51;20.70;72.00